Pagrindinis puslapis
METAR-TAF:

METAR-TAF

Oro uostai :

Naftos platforma

Norne Fpso, Norvegija

platuma: 66-01-48N, ilguma: 008-04-48E, Aukštis: 10 m

Dabartinis oras

Ataskaita buvo paskelbta 24 minutes, ne 20:50 UTC
Vėjas 10 kt iš Rytų/Pietryčių
Temperatūra 8°C
Drėgmė 100%
Slėgis 1009 hPa
Matomumas 10 km arba daugiau

METAR: ENNE 222050Z AUTO 12010KT 9999NDV OVC008/// 08/08 Q1009 W///S3

Laikas: 23:14 (21:14 UTC)

Prognozė

Ataskaita buvo paskelbta 7 valandos ir 52 minutes, ne 13:22 UTC
Prognozė galioja nuo 22 metu 13 UTC su 22 metu 17 UTC
Vėjas 15 kt iš Pietų
Matomumas: 6000 m
Apsiniaukę ne aukštis 600 ft
Laikinai
nuo 22 metu 13 UTC su 22 metu 17 UTC
Matomumas: 1500 m
Su prošvaistėmis ne aukštis 400 ft
rūkana
Tikimybė 30%
nuo 22 metu 13 UTC su 22 metu 17 UTC
Išsisklaidę debesys ne aukštis 500 ft

TAF: ENNE 221322Z 2213/2217 18015KT 6000 OVC006 TEMPO 2213/2217 1500 BR BKN004 PROB30 2213/2217 SCT005

Orai ataskaitas ir orų prognozės (METAR, TAF).

turimą stotys yra geltonos ir raudonos taškus žemėlapyje.

Perkelti pele per norėdami pamatyti stoties vardą.

Tada spustelėkite, norėdami matyti oro stebėjimo ir prognozės.

Norėdami pakeisti žemėlapį: spustelėkite ant žalios mygtukų su juodo kryžiaus žemyn,; žalią mygtuką su brūkšneliu, jei norite nutolinti; arba žalių rodyklių gretimoms žemėlapius.


METAR-TAF: